sensor_id;sensor_type;location;lat;lon;timestamp;temperature;humidity
3202;DHT22;34843;48.744;8.958;2024-03-06T00:00:25;3.70;99.90
3202;DHT22;34843;48.744;8.958;2024-03-06T00:02:51;3.70;99.90
3202;DHT22;34843;48.744;8.958;2024-03-06T00:05:16;3.70;99.90
3202;DHT22;34843;48.744;8.958;2024-03-06T00:07:42;3.70;99.90
3202;DHT22;34843;48.744;8.958;2024-03-06T00:10:08;3.70;99.90
3202;DHT22;34843;48.744;8.958;2024-03-06T00:12:34;3.60;99.90
3202;DHT22;34843;48.744;8.958;2024-03-06T00:14:59;3.60;99.90
3202;DHT22;34843;48.744;8.958;2024-03-06T00:17:25;3.60;99.90
3202;DHT22;34843;48.744;8.958;2024-03-06T00:19:50;3.60;99.90
3202;DHT22;34843;48.744;8.958;2024-03-06T00:22:16;3.60;99.90
3202;DHT22;34843;48.744;8.958;2024-03-06T00:24:42;3.60;99.90
3202;DHT22;34843;48.744;8.958;2024-03-06T00:27:08;3.70;99.90
3202;DHT22;34843;48.744;8.958;2024-03-06T00:29:33;3.70;99.90
3202;DHT22;34843;48.744;8.958;2024-03-06T00:32:01;3.80;99.90
3202;DHT22;34843;48.744;8.958;2024-03-06T00:34:27;3.80;99.90
3202;DHT22;34843;48.744;8.958;2024-03-06T00:36:53;3.90;99.90
3202;DHT22;34843;48.744;8.958;2024-03-06T00:39:19;3.90;99.90
3202;DHT22;34843;48.744;8.958;2024-03-06T00:41:45;3.90;99.90
3202;DHT22;34843;48.744;8.958;2024-03-06T00:44:10;3.90;99.90
3202;DHT22;34843;48.744;8.958;2024-03-06T00:46:36;3.80;99.90
3202;DHT22;34843;48.744;8.958;2024-03-06T00:49:01;3.80;99.90
3202;DHT22;34843;48.744;8.958;2024-03-06T00:51:27;3.90;99.90
3202;DHT22;34843;48.744;8.958;2024-03-06T00:53:52;3.90;99.90
3202;DHT22;34843;48.744;8.958;2024-03-06T00:56:18;3.80;99.90
3202;DHT22;34843;48.744;8.958;2024-03-06T00:58:43;3.80;99.90
3202;DHT22;34843;48.744;8.958;2024-03-06T01:01:09;3.80;99.90
3202;DHT22;34843;48.744;8.958;2024-03-06T01:03:34;3.70;99.90
3202;DHT22;34843;48.744;8.958;2024-03-06T01:06:00;3.70;99.90
3202;DHT22;34843;48.744;8.958;2024-03-06T01:08:25;3.70;99.90
3202;DHT22;34843;48.744;8.958;2024-03-06T01:10:51;3.70;99.90
3202;DHT22;34843;48.744;8.958;2024-03-06T01:13:18;3.70;99.90
3202;DHT22;34843;48.744;8.958;2024-03-06T01:15:44;3.70;99.90
3202;DHT22;34843;48.744;8.958;2024-03-06T01:18:09;3.60;99.90
3202;DHT22;34843;48.744;8.958;2024-03-06T01:20:35;3.60;99.90
3202;DHT22;34843;48.744;8.958;2024-03-06T01:23:01;3.60;99.90
3202;DHT22;34843;48.744;8.958;2024-03-06T01:25:27;3.70;99.90
3202;DHT22;34843;48.744;8.958;2024-03-06T01:27:52;3.70;99.90
3202;DHT22;34843;48.744;8.958;2024-03-06T01:30:18;3.70;99.90
3202;DHT22;34843;48.744;8.958;2024-03-06T01:32:43;3.70;99.90
3202;DHT22;34843;48.744;8.958;2024-03-06T01:37:35;3.70;99.90
3202;DHT22;34843;48.744;8.958;2024-03-06T01:40:00;3.70;99.90
3202;DHT22;34843;48.744;8.958;2024-03-06T01:42:29;3.80;99.90
3202;DHT22;34843;48.744;8.958;2024-03-06T01:44:54;3.80;99.90
3202;DHT22;34843;48.744;8.958;2024-03-06T01:47:20;3.90;99.90
3202;DHT22;34843;48.744;8.958;2024-03-06T01:49:46;3.90;99.90
3202;DHT22;34843;48.744;8.958;2024-03-06T01:52:14;3.90;99.90
3202;DHT22;34843;48.744;8.958;2024-03-06T01:54:40;3.90;99.90
3202;DHT22;34843;48.744;8.958;2024-03-06T01:57:08;3.90;99.90
3202;DHT22;34843;48.744;8.958;2024-03-06T01:59:34;3.80;99.90
3202;DHT22;34843;48.744;8.958;2024-03-06T02:02:00;3.80;99.90
3202;DHT22;34843;48.744;8.958;2024-03-06T02:04:26;3.70;99.90
3202;DHT22;34843;48.744;8.958;2024-03-06T02:06:53;3.70;99.90
3202;DHT22;34843;48.744;8.958;2024-03-06T02:09:19;3.70;99.90
3202;DHT22;34843;48.744;8.958;2024-03-06T02:11:45;3.70;99.90
3202;DHT22;34843;48.744;8.958;2024-03-06T02:14:11;3.70;99.90
3202;DHT22;34843;48.744;8.958;2024-03-06T02:16:37;3.70;99.90
3202;DHT22;34843;48.744;8.958;2024-03-06T02:19:05;3.60;99.90
3202;DHT22;34843;48.744;8.958;2024-03-06T02:21:30;3.60;99.90
3202;DHT22;34843;48.744;8.958;2024-03-06T02:23:56;3.50;99.90
3202;DHT22;34843;48.744;8.958;2024-03-06T02:26:22;3.50;99.90
3202;DHT22;34843;48.744;8.958;2024-03-06T02:28:49;3.50;99.90
3202;DHT22;34843;48.744;8.958;2024-03-06T02:31:16;3.40;99.90
3202;DHT22;34843;48.744;8.958;2024-03-06T02:33:43;3.40;99.90
3202;DHT22;34843;48.744;8.958;2024-03-06T02:36:10;3.40;99.90
3202;DHT22;34843;48.744;8.958;2024-03-06T02:38:36;3.40;99.90
3202;DHT22;34843;48.744;8.958;2024-03-06T02:41:02;3.40;99.90
3202;DHT22;34843;48.744;8.958;2024-03-06T02:43:27;3.40;99.90
3202;DHT22;34843;48.744;8.958;2024-03-06T02:45:53;3.40;99.90
3202;DHT22;34843;48.744;8.958;2024-03-06T02:48:18;3.50;99.90
3202;DHT22;34843;48.744;8.958;2024-03-06T02:50:44;3.60;99.90
3202;DHT22;34843;48.744;8.958;2024-03-06T02:53:09;3.60;99.90
3202;DHT22;34843;48.744;8.958;2024-03-06T02:55:35;3.70;99.90
3202;DHT22;34843;48.744;8.958;2024-03-06T02:58:04;3.80;99.90
3202;DHT22;34843;48.744;8.958;2024-03-06T03:00:29;3.90;99.90
3202;DHT22;34843;48.744;8.958;2024-03-06T03:02:56;3.90;99.90
3202;DHT22;34843;48.744;8.958;2024-03-06T03:05:21;4.00;99.90
3202;DHT22;34843;48.744;8.958;2024-03-06T03:07:47;4.10;99.90
3202;DHT22;34843;48.744;8.958;2024-03-06T03:10:12;4.10;99.90
3202;DHT22;34843;48.744;8.958;2024-03-06T03:12:39;4.10;99.90
3202;DHT22;34843;48.744;8.958;2024-03-06T03:15:05;4.00;99.90
3202;DHT22;34843;48.744;8.958;2024-03-06T03:17:32;4.00;99.90
3202;DHT22;34843;48.744;8.958;2024-03-06T03:19:58;4.00;99.90
3202;DHT22;34843;48.744;8.958;2024-03-06T03:22:23;4.00;99.90
3202;DHT22;34843;48.744;8.958;2024-03-06T03:24:49;4.00;99.90
3202;DHT22;34843;48.744;8.958;2024-03-06T03:27:14;4.00;99.90
3202;DHT22;34843;48.744;8.958;2024-03-06T03:29:40;4.10;99.90
3202;DHT22;34843;48.744;8.958;2024-03-06T03:32:06;4.20;99.90
3202;DHT22;34843;48.744;8.958;2024-03-06T03:34:35;4.20;99.90
3202;DHT22;34843;48.744;8.958;2024-03-06T03:37:01;4.10;99.90
3202;DHT22;34843;48.744;8.958;2024-03-06T03:39:27;4.10;99.90
3202;DHT22;34843;48.744;8.958;2024-03-06T03:41:53;4.10;99.90
3202;DHT22;34843;48.744;8.958;2024-03-06T03:44:19;4.10;99.90
3202;DHT22;34843;48.744;8.958;2024-03-06T03:46:45;4.10;99.90
3202;DHT22;34843;48.744;8.958;2024-03-06T03:49:11;4.10;99.90
3202;DHT22;34843;48.744;8.958;2024-03-06T03:51:38;4.10;99.90
3202;DHT22;34843;48.744;8.958;2024-03-06T03:54:04;4.10;99.90
3202;DHT22;34843;48.744;8.958;2024-03-06T03:56:30;4.00;99.90
3202;DHT22;34843;48.744;8.958;2024-03-06T03:58:57;4.00;99.90
3202;DHT22;34843;48.744;8.958;2024-03-06T04:01:23;4.10;99.90
3202;DHT22;34843;48.744;8.958;2024-03-06T04:03:49;4.00;99.90
3202;DHT22;34843;48.744;8.958;2024-03-06T04:06:16;4.10;99.90
3202;DHT22;34843;48.744;8.958;2024-03-06T04:08:41;4.10;99.90
3202;DHT22;34843;48.744;8.958;2024-03-06T04:11:07;4.20;99.90
3202;DHT22;34843;48.744;8.958;2024-03-06T04:13:37;4.30;99.90
3202;DHT22;34843;48.744;8.958;2024-03-06T04:16:03;4.30;99.90
3202;DHT22;34843;48.744;8.958;2024-03-06T04:18:29;4.40;99.90
3202;DHT22;34843;48.744;8.958;2024-03-06T04:20:56;4.40;99.90
3202;DHT22;34843;48.744;8.958;2024-03-06T04:23:22;4.50;99.90
3202;DHT22;34843;48.744;8.958;2024-03-06T04:25:47;4.50;99.90
3202;DHT22;34843;48.744;8.958;2024-03-06T04:28:13;4.60;99.90
3202;DHT22;34843;48.744;8.958;2024-03-06T04:30:38;4.60;99.90
3202;DHT22;34843;48.744;8.958;2024-03-06T04:33:04;4.60;99.90
3202;DHT22;34843;48.744;8.958;2024-03-06T04:35:29;4.50;99.90
3202;DHT22;34843;48.744;8.958;2024-03-06T04:37:55;4.40;99.90
3202;DHT22;34843;48.744;8.958;2024-03-06T04:40:20;4.30;99.90
3202;DHT22;34843;48.744;8.958;2024-03-06T04:42:48;4.30;99.90
3202;DHT22;34843;48.744;8.958;2024-03-06T04:45:16;4.30;99.90
3202;DHT22;34843;48.744;8.958;2024-03-06T04:47:42;4.40;99.90
3202;DHT22;34843;48.744;8.958;2024-03-06T04:50:09;4.50;99.90
3202;DHT22;34843;48.744;8.958;2024-03-06T04:52:36;4.40;99.90
3202;DHT22;34843;48.744;8.958;2024-03-06T04:55:02;4.30;99.90
3202;DHT22;34843;48.744;8.958;2024-03-06T04:57:28;4.30;99.90
3202;DHT22;34843;48.744;8.958;2024-03-06T04:59:54;4.20;99.90
3202;DHT22;34843;48.744;8.958;2024-03-06T05:02:20;4.20;99.90
3202;DHT22;34843;48.744;8.958;2024-03-06T05:04:45;4.20;99.90
3202;DHT22;34843;48.744;8.958;2024-03-06T05:07:12;4.30;99.90
3202;DHT22;34843;48.744;8.958;2024-03-06T05:09:38;4.40;99.90
3202;DHT22;34843;48.744;8.958;2024-03-06T05:12:04;4.50;99.90
3202;DHT22;34843;48.744;8.958;2024-03-06T05:14:30;4.50;99.90
3202;DHT22;34843;48.744;8.958;2024-03-06T05:16:56;4.60;99.90
3202;DHT22;34843;48.744;8.958;2024-03-06T05:19:21;4.70;99.90
3202;DHT22;34843;48.744;8.958;2024-03-06T05:21:47;4.70;99.90
3202;DHT22;34843;48.744;8.958;2024-03-06T05:24:12;4.70;99.90
3202;DHT22;34843;48.744;8.958;2024-03-06T05:26:38;4.70;99.90
3202;DHT22;34843;48.744;8.958;2024-03-06T05:29:03;4.70;99.90
3202;DHT22;34843;48.744;8.958;2024-03-06T05:31:29;4.60;99.90
3202;DHT22;34843;48.744;8.958;2024-03-06T05:33:55;4.60;99.90
3202;DHT22;34843;48.744;8.958;2024-03-06T05:36:20;4.60;99.90
3202;DHT22;34843;48.744;8.958;2024-03-06T05:38:46;4.60;99.90
3202;DHT22;34843;48.744;8.958;2024-03-06T05:41:13;4.60;99.90
3202;DHT22;34843;48.744;8.958;2024-03-06T05:43:38;4.60;99.90
3202;DHT22;34843;48.744;8.958;2024-03-06T05:46:06;4.60;99.90
3202;DHT22;34843;48.744;8.958;2024-03-06T05:48:31;4.60;99.90
3202;DHT22;34843;48.744;8.958;2024-03-06T05:50:58;4.60;99.90
3202;DHT22;34843;48.744;8.958;2024-03-06T05:53:23;4.60;99.90
3202;DHT22;34843;48.744;8.958;2024-03-06T05:55:49;4.50;99.90
3202;DHT22;34843;48.744;8.958;2024-03-06T05:58:14;4.50;99.90
3202;DHT22;34843;48.744;8.958;2024-03-06T06:00:41;4.50;99.90
3202;DHT22;34843;48.744;8.958;2024-03-06T06:03:08;4.50;99.90
3202;DHT22;34843;48.744;8.958;2024-03-06T06:05:35;4.50;99.90
3202;DHT22;34843;48.744;8.958;2024-03-06T06:08:02;4.50;99.90
3202;DHT22;34843;48.744;8.958;2024-03-06T06:10:28;4.50;99.90
3202;DHT22;34843;48.744;8.958;2024-03-06T06:12:54;4.60;99.90
3202;DHT22;34843;48.744;8.958;2024-03-06T06:15:19;4.60;99.90
3202;DHT22;34843;48.744;8.958;2024-03-06T06:17:45;4.60;99.90
3202;DHT22;34843;48.744;8.958;2024-03-06T06:20:11;4.60;99.90
3202;DHT22;34843;48.744;8.958;2024-03-06T06:22:40;4.70;99.90
3202;DHT22;34843;48.744;8.958;2024-03-06T06:25:06;4.70;99.90
3202;DHT22;34843;48.744;8.958;2024-03-06T06:27:32;4.70;99.90
3202;DHT22;34843;48.744;8.958;2024-03-06T06:29:58;4.70;99.90
3202;DHT22;34843;48.744;8.958;2024-03-06T06:32:24;4.70;99.90
3202;DHT22;34843;48.744;8.958;2024-03-06T06:34:49;4.70;99.90
3202;DHT22;34843;48.744;8.958;2024-03-06T06:37:15;4.70;99.90
3202;DHT22;34843;48.744;8.958;2024-03-06T06:39:41;4.70;99.90
3202;DHT22;34843;48.744;8.958;2024-03-06T06:42:06;4.80;99.90
3202;DHT22;34843;48.744;8.958;2024-03-06T06:44:32;4.70;99.90
3202;DHT22;34843;48.744;8.958;2024-03-06T06:46:57;4.80;99.90
3202;DHT22;34843;48.744;8.958;2024-03-06T06:49:23;4.90;99.90
3202;DHT22;34843;48.744;8.958;2024-03-06T06:51:49;4.80;99.90
3202;DHT22;34843;48.744;8.958;2024-03-06T06:54:14;4.80;99.90
3202;DHT22;34843;48.744;8.958;2024-03-06T06:56:40;4.90;99.90
3202;DHT22;34843;48.744;8.958;2024-03-06T06:59:05;4.90;99.90
3202;DHT22;34843;48.744;8.958;2024-03-06T07:01:31;4.90;99.90
3202;DHT22;34843;48.744;8.958;2024-03-06T07:03:58;4.90;99.90
3202;DHT22;34843;48.744;8.958;2024-03-06T07:06:23;5.00;99.90
3202;DHT22;34843;48.744;8.958;2024-03-06T07:08:49;5.10;99.90
3202;DHT22;34843;48.744;8.958;2024-03-06T07:11:18;5.20;99.90
3202;DHT22;34843;48.744;8.958;2024-03-06T07:13:44;5.20;99.90
3202;DHT22;34843;48.744;8.958;2024-03-06T07:16:10;5.30;99.90
3202;DHT22;34843;48.744;8.958;2024-03-06T07:18:35;5.30;99.90
3202;DHT22;34843;48.744;8.958;2024-03-06T07:21:01;5.20;99.90
3202;DHT22;34843;48.744;8.958;2024-03-06T07:23:26;5.20;99.90
3202;DHT22;34843;48.744;8.958;2024-03-06T07:25:52;5.20;99.90
3202;DHT22;34843;48.744;8.958;2024-03-06T07:28:18;5.20;99.90
3202;DHT22;34843;48.744;8.958;2024-03-06T07:30:44;5.30;99.90
3202;DHT22;34843;48.744;8.958;2024-03-06T07:33:09;5.30;99.90
3202;DHT22;34843;48.744;8.958;2024-03-06T07:35:35;5.30;99.90
3202;DHT22;34843;48.744;8.958;2024-03-06T07:38:03;5.30;99.90
3202;DHT22;34843;48.744;8.958;2024-03-06T07:40:30;5.40;99.90
3202;DHT22;34843;48.744;8.958;2024-03-06T07:42:57;5.40;99.90
3202;DHT22;34843;48.744;8.958;2024-03-06T07:45:22;5.40;99.90
3202;DHT22;34843;48.744;8.958;2024-03-06T07:47:48;5.50;99.90
3202;DHT22;34843;48.744;8.958;2024-03-06T07:50:13;5.50;99.90
3202;DHT22;34843;48.744;8.958;2024-03-06T07:52:46;5.40;99.90
3202;DHT22;34843;48.744;8.958;2024-03-06T07:55:12;5.30;99.90
3202;DHT22;34843;48.744;8.958;2024-03-06T07:57:38;5.20;99.90
3202;DHT22;34843;48.744;8.958;2024-03-06T08:00:06;5.20;99.90
3202;DHT22;34843;48.744;8.958;2024-03-06T08:02:42;5.20;99.90
3202;DHT22;34843;48.744;8.958;2024-03-06T08:05:10;5.10;99.90
3202;DHT22;34843;48.744;8.958;2024-03-06T08:07:40;5.10;99.90
3202;DHT22;34843;48.744;8.958;2024-03-06T08:10:08;5.20;99.90
3202;DHT22;34843;48.744;8.958;2024-03-06T08:12:34;5.20;99.90
3202;DHT22;34843;48.744;8.958;2024-03-06T08:15:00;5.30;99.90
3202;DHT22;34843;48.744;8.958;2024-03-06T08:17:27;5.30;99.90
3202;DHT22;34843;48.744;8.958;2024-03-06T08:19:52;5.40;99.90
3202;DHT22;34843;48.744;8.958;2024-03-06T08:22:18;5.40;99.90
3202;DHT22;34843;48.744;8.958;2024-03-06T08:24:43;5.40;99.90
3202;DHT22;34843;48.744;8.958;2024-03-06T08:27:09;5.50;99.90
3202;DHT22;34843;48.744;8.958;2024-03-06T08:29:34;5.60;99.90
3202;DHT22;34843;48.744;8.958;2024-03-06T08:31:59;5.70;99.90
3202;DHT22;34843;48.744;8.958;2024-03-06T08:34:26;5.80;99.90
3202;DHT22;34843;48.744;8.958;2024-03-06T08:36:51;5.90;99.90
3202;DHT22;34843;48.744;8.958;2024-03-06T08:39:18;5.90;99.90
3202;DHT22;34843;48.744;8.958;2024-03-06T08:41:44;5.90;99.90
3202;DHT22;34843;48.744;8.958;2024-03-06T08:44:09;6.00;99.90
3202;DHT22;34843;48.744;8.958;2024-03-06T08:46:34;6.00;99.90
3202;DHT22;34843;48.744;8.958;2024-03-06T08:49:00;6.10;99.90
3202;DHT22;34843;48.744;8.958;2024-03-06T08:51:26;6.00;99.90
3202;DHT22;34843;48.744;8.958;2024-03-06T08:53:51;5.90;99.90
3202;DHT22;34843;48.744;8.958;2024-03-06T08:56:17;5.90;99.90
3202;DHT22;34843;48.744;8.958;2024-03-06T08:58:43;6.00;99.90
3202;DHT22;34843;48.744;8.958;2024-03-06T09:01:09;5.90;99.90
3202;DHT22;34843;48.744;8.958;2024-03-06T09:03:34;5.80;99.90
3202;DHT22;34843;48.744;8.958;2024-03-06T09:06:00;5.80;99.90
3202;DHT22;34843;48.744;8.958;2024-03-06T09:08:28;5.70;99.90
3202;DHT22;34843;48.744;8.958;2024-03-06T09:10:53;5.70;99.90
3202;DHT22;34843;48.744;8.958;2024-03-06T09:13:19;5.80;99.90
3202;DHT22;34843;48.744;8.958;2024-03-06T09:15:44;5.80;99.90
3202;DHT22;34843;48.744;8.958;2024-03-06T09:18:10;5.90;99.90
3202;DHT22;34843;48.744;8.958;2024-03-06T09:20:35;5.90;99.90
3202;DHT22;34843;48.744;8.958;2024-03-06T09:23:01;5.90;99.90
3202;DHT22;34843;48.744;8.958;2024-03-06T09:25:26;5.90;99.90
3202;DHT22;34843;48.744;8.958;2024-03-06T09:27:52;5.90;99.90
3202;DHT22;34843;48.744;8.958;2024-03-06T09:30:17;5.90;99.90
3202;DHT22;34843;48.744;8.958;2024-03-06T09:32:43;5.90;99.90
3202;DHT22;34843;48.744;8.958;2024-03-06T09:35:09;5.90;99.90
3202;DHT22;34843;48.744;8.958;2024-03-06T09:37:36;5.90;99.90
3202;DHT22;34843;48.744;8.958;2024-03-06T09:40:01;5.80;99.90
3202;DHT22;34843;48.744;8.958;2024-03-06T09:42:28;5.80;99.90
3202;DHT22;34843;48.744;8.958;2024-03-06T09:44:53;5.80;99.90
3202;DHT22;34843;48.744;8.958;2024-03-06T09:47:22;5.80;99.90
3202;DHT22;34843;48.744;8.958;2024-03-06T09:49:53;5.80;99.90
3202;DHT22;34843;48.744;8.958;2024-03-06T09:52:19;5.70;99.90
3202;DHT22;34843;48.744;8.958;2024-03-06T09:54:44;5.70;99.90
3202;DHT22;34843;48.744;8.958;2024-03-06T09:57:10;5.70;99.90
3202;DHT22;34843;48.744;8.958;2024-03-06T09:59:38;5.70;99.90
3202;DHT22;34843;48.744;8.958;2024-03-06T10:02:18;5.80;99.90
3202;DHT22;34843;48.744;8.958;2024-03-06T10:04:44;5.90;99.90
3202;DHT22;34843;48.744;8.958;2024-03-06T10:07:09;6.00;99.90
3202;DHT22;34843;48.744;8.958;2024-03-06T10:09:35;6.10;99.90
3202;DHT22;34843;48.744;8.958;2024-03-06T10:12:01;6.10;99.90
3202;DHT22;34843;48.744;8.958;2024-03-06T10:14:27;6.30;99.90
3202;DHT22;34843;48.744;8.958;2024-03-06T10:19:22;6.50;99.90
3202;DHT22;34843;48.744;8.958;2024-03-06T10:21:48;6.50;99.90
3202;DHT22;34843;48.744;8.958;2024-03-06T10:24:21;6.50;99.90
3202;DHT22;34843;48.744;8.958;2024-03-06T10:26:49;6.50;99.90
3202;DHT22;34843;48.744;8.958;2024-03-06T10:29:18;6.60;99.90
3202;DHT22;34843;48.744;8.958;2024-03-06T10:32:02;6.70;99.90
3202;DHT22;34843;48.744;8.958;2024-03-06T10:34:28;6.70;99.90
3202;DHT22;34843;48.744;8.958;2024-03-06T10:36:58;6.60;99.90
3202;DHT22;34843;48.744;8.958;2024-03-06T10:39:24;6.60;99.90
3202;DHT22;34843;48.744;8.958;2024-03-06T10:41:55;6.50;99.90
3202;DHT22;34843;48.744;8.958;2024-03-06T10:44:22;6.60;99.90
3202;DHT22;34843;48.744;8.958;2024-03-06T10:46:55;6.60;99.90
3202;DHT22;34843;48.744;8.958;2024-03-06T10:49:23;6.60;99.90
3202;DHT22;34843;48.744;8.958;2024-03-06T10:51:49;6.60;99.90
3202;DHT22;34843;48.744;8.958;2024-03-06T10:54:16;6.60;99.90
3202;DHT22;34843;48.744;8.958;2024-03-06T10:56:41;6.70;99.90
3202;DHT22;34843;48.744;8.958;2024-03-06T10:59:10;6.80;99.90
3202;DHT22;34843;48.744;8.958;2024-03-06T11:01:39;6.90;99.90
3202;DHT22;34843;48.744;8.958;2024-03-06T11:04:05;6.80;99.90
3202;DHT22;34843;48.744;8.958;2024-03-06T11:06:31;6.90;99.90
3202;DHT22;34843;48.744;8.958;2024-03-06T11:08:57;6.80;99.90
3202;DHT22;34843;48.744;8.958;2024-03-06T11:11:23;6.70;99.90
3202;DHT22;34843;48.744;8.958;2024-03-06T11:13:50;6.70;99.90
3202;DHT22;34843;48.744;8.958;2024-03-06T11:16:16;6.50;99.90
3202;DHT22;34843;48.744;8.958;2024-03-06T11:18:42;6.50;99.90
3202;DHT22;34843;48.744;8.958;2024-03-06T11:23:34;6.80;99.90
3202;DHT22;34843;48.744;8.958;2024-03-06T11:26:03;6.90;99.90
3202;DHT22;34843;48.744;8.958;2024-03-06T11:28:31;7.10;99.90
3202;DHT22;34843;48.744;8.958;2024-03-06T11:31:04;7.10;99.90
3202;DHT22;34843;48.744;8.958;2024-03-06T11:33:44;6.90;99.90
3202;DHT22;34843;48.744;8.958;2024-03-06T11:36:22;6.90;99.90
3202;DHT22;34843;48.744;8.958;2024-03-06T11:38:52;6.90;99.90
3202;DHT22;34843;48.744;8.958;2024-03-06T11:41:19;6.80;99.90
3202;DHT22;34843;48.744;8.958;2024-03-06T11:43:45;6.70;99.90
3202;DHT22;34843;48.744;8.958;2024-03-06T11:46:12;6.60;99.90
3202;DHT22;34843;48.744;8.958;2024-03-06T11:48:38;6.60;99.90
3202;DHT22;34843;48.744;8.958;2024-03-06T11:51:04;6.50;99.90
3202;DHT22;34843;48.744;8.958;2024-03-06T11:53:30;6.50;99.90
3202;DHT22;34843;48.744;8.958;2024-03-06T11:55:57;6.40;99.90
3202;DHT22;34843;48.744;8.958;2024-03-06T11:58:23;6.20;99.90
3202;DHT22;34843;48.744;8.958;2024-03-06T12:00:49;6.20;99.90
3202;DHT22;34843;48.744;8.958;2024-03-06T12:03:15;6.20;99.90
3202;DHT22;34843;48.744;8.958;2024-03-06T12:05:40;6.30;99.90
3202;DHT22;34843;48.744;8.958;2024-03-06T12:08:07;6.40;99.90
3202;DHT22;34843;48.744;8.958;2024-03-06T12:10:38;6.30;99.90
3202;DHT22;34843;48.744;8.958;2024-03-06T12:13:07;6.30;99.90
3202;DHT22;34843;48.744;8.958;2024-03-06T12:15:33;6.40;99.90
3202;DHT22;34843;48.744;8.958;2024-03-06T12:17:58;6.30;99.90
3202;DHT22;34843;48.744;8.958;2024-03-06T12:20:24;6.20;99.90
3202;DHT22;34843;48.744;8.958;2024-03-06T12:22:52;6.30;99.90
3202;DHT22;34843;48.744;8.958;2024-03-06T12:25:25;6.30;99.90
3202;DHT22;34843;48.744;8.958;2024-03-06T12:27:54;6.30;99.90
3202;DHT22;34843;48.744;8.958;2024-03-06T12:30:20;6.30;99.90
3202;DHT22;34843;48.744;8.958;2024-03-06T12:33:02;6.20;99.90
3202;DHT22;34843;48.744;8.958;2024-03-06T12:35:31;6.30;99.90
3202;DHT22;34843;48.744;8.958;2024-03-06T12:37:57;6.30;99.90
3202;DHT22;34843;48.744;8.958;2024-03-06T12:40:23;6.20;99.90
3202;DHT22;34843;48.744;8.958;2024-03-06T12:42:49;6.20;99.90
3202;DHT22;34843;48.744;8.958;2024-03-06T12:45:17;6.20;99.90
3202;DHT22;34843;48.744;8.958;2024-03-06T12:47:43;6.20;99.90
3202;DHT22;34843;48.744;8.958;2024-03-06T12:50:10;6.10;99.90
3202;DHT22;34843;48.744;8.958;2024-03-06T12:52:40;6.20;99.90
3202;DHT22;34843;48.744;8.958;2024-03-06T12:55:06;6.20;99.90
3202;DHT22;34843;48.744;8.958;2024-03-06T12:57:32;6.30;99.90
3202;DHT22;34843;48.744;8.958;2024-03-06T12:59:58;6.30;99.90
3202;DHT22;34843;48.744;8.958;2024-03-06T13:02:23;6.30;99.90
3202;DHT22;34843;48.744;8.958;2024-03-06T13:04:49;6.30;99.90
3202;DHT22;34843;48.744;8.958;2024-03-06T13:07:15;6.40;99.90
3202;DHT22;34843;48.744;8.958;2024-03-06T13:09:40;6.50;99.90
3202;DHT22;34843;48.744;8.958;2024-03-06T13:12:06;6.40;99.90
3202;DHT22;34843;48.744;8.958;2024-03-06T13:14:32;6.50;99.90
3202;DHT22;34843;48.744;8.958;2024-03-06T13:16:58;6.50;99.90
3202;DHT22;34843;48.744;8.958;2024-03-06T13:19:23;6.60;99.90
3202;DHT22;34843;48.744;8.958;2024-03-06T13:21:49;6.50;99.90
3202;DHT22;34843;48.744;8.958;2024-03-06T13:24:15;6.50;99.90
3202;DHT22;34843;48.744;8.958;2024-03-06T13:26:40;6.50;99.90
3202;DHT22;34843;48.744;8.958;2024-03-06T13:29:06;6.50;99.90
3202;DHT22;34843;48.744;8.958;2024-03-06T13:31:32;6.60;99.90
3202;DHT22;34843;48.744;8.958;2024-03-06T13:34:00;6.70;99.90
3202;DHT22;34843;48.744;8.958;2024-03-06T13:36:31;6.90;99.90
3202;DHT22;34843;48.744;8.958;2024-03-06T13:38:57;6.90;99.90
3202;DHT22;34843;48.744;8.958;2024-03-06T13:41:23;6.90;99.90
3202;DHT22;34843;48.744;8.958;2024-03-06T13:43:49;6.90;99.90
3202;DHT22;34843;48.744;8.958;2024-03-06T13:46:14;6.90;99.90
3202;DHT22;34843;48.744;8.958;2024-03-06T13:48:40;6.90;99.90
3202;DHT22;34843;48.744;8.958;2024-03-06T13:51:05;6.90;99.90
3202;DHT22;34843;48.744;8.958;2024-03-06T13:53:31;6.90;99.90
3202;DHT22;34843;48.744;8.958;2024-03-06T13:55:57;6.80;99.90
3202;DHT22;34843;48.744;8.958;2024-03-06T13:58:23;6.90;99.90
3202;DHT22;34843;48.744;8.958;2024-03-06T14:00:48;7.00;99.90
3202;DHT22;34843;48.744;8.958;2024-03-06T14:03:14;6.90;99.90
3202;DHT22;34843;48.744;8.958;2024-03-06T14:05:39;6.90;99.90
3202;DHT22;34843;48.744;8.958;2024-03-06T14:08:05;6.90;99.90
3202;DHT22;34843;48.744;8.958;2024-03-06T14:10:31;6.80;99.90
3202;DHT22;34843;48.744;8.958;2024-03-06T14:12:59;6.70;99.90
3202;DHT22;34843;48.744;8.958;2024-03-06T14:15:25;6.70;99.90
3202;DHT22;34843;48.744;8.958;2024-03-06T14:17:52;6.60;99.90
3202;DHT22;34843;48.744;8.958;2024-03-06T14:20:19;6.60;99.90
3202;DHT22;34843;48.744;8.958;2024-03-06T14:22:45;6.60;99.90
3202;DHT22;34843;48.744;8.958;2024-03-06T14:25:11;6.50;99.90
3202;DHT22;34843;48.744;8.958;2024-03-06T14:27:37;6.50;99.90
3202;DHT22;34843;48.744;8.958;2024-03-06T14:30:03;6.50;99.90
3202;DHT22;34843;48.744;8.958;2024-03-06T14:32:29;6.50;99.90
3202;DHT22;34843;48.744;8.958;2024-03-06T14:34:55;6.50;99.90
3202;DHT22;34843;48.744;8.958;2024-03-06T14:37:20;6.50;99.90
3202;DHT22;34843;48.744;8.958;2024-03-06T14:39:46;6.50;99.90
3202;DHT22;34843;48.744;8.958;2024-03-06T14:42:12;6.60;99.90
3202;DHT22;34843;48.744;8.958;2024-03-06T14:44:37;6.60;99.90
3202;DHT22;34843;48.744;8.958;2024-03-06T14:47:03;6.60;99.90
3202;DHT22;34843;48.744;8.958;2024-03-06T14:49:28;6.60;99.90
3202;DHT22;34843;48.744;8.958;2024-03-06T14:51:54;6.60;99.90
3202;DHT22;34843;48.744;8.958;2024-03-06T14:54:21;6.60;99.90
3202;DHT22;34843;48.744;8.958;2024-03-06T14:56:48;6.60;99.90
3202;DHT22;34843;48.744;8.958;2024-03-06T14:59:13;6.50;99.90
3202;DHT22;34843;48.744;8.958;2024-03-06T15:01:39;6.50;99.90
3202;DHT22;34843;48.744;8.958;2024-03-06T15:04:05;6.50;99.90
3202;DHT22;34843;48.744;8.958;2024-03-06T15:06:30;6.50;99.90
3202;DHT22;34843;48.744;8.958;2024-03-06T15:08:56;6.50;99.90
3202;DHT22;34843;48.744;8.958;2024-03-06T15:11:21;6.40;99.90
3202;DHT22;34843;48.744;8.958;2024-03-06T15:13:49;6.40;99.90
3202;DHT22;34843;48.744;8.958;2024-03-06T15:16:16;6.40;99.90
3202;DHT22;34843;48.744;8.958;2024-03-06T15:18:41;6.40;99.90
3202;DHT22;34843;48.744;8.958;2024-03-06T15:21:07;6.40;99.90
3202;DHT22;34843;48.744;8.958;2024-03-06T15:23:34;6.40;99.90
3202;DHT22;34843;48.744;8.958;2024-03-06T15:25:59;6.40;99.90
3202;DHT22;34843;48.744;8.958;2024-03-06T15:28:25;6.40;99.90
3202;DHT22;34843;48.744;8.958;2024-03-06T15:30:50;6.40;99.90
3202;DHT22;34843;48.744;8.958;2024-03-06T15:33:16;6.40;99.90
3202;DHT22;34843;48.744;8.958;2024-03-06T15:35:41;6.20;99.90
3202;DHT22;34843;48.744;8.958;2024-03-06T15:38:07;6.20;99.90
3202;DHT22;34843;48.744;8.958;2024-03-06T15:40:33;6.30;99.90
3202;DHT22;34843;48.744;8.958;2024-03-06T15:42:58;6.30;99.90
3202;DHT22;34843;48.744;8.958;2024-03-06T15:45:24;6.40;99.90
3202;DHT22;34843;48.744;8.958;2024-03-06T15:47:49;6.40;99.90
3202;DHT22;34843;48.744;8.958;2024-03-06T15:50:15;6.30;99.90
3202;DHT22;34843;48.744;8.958;2024-03-06T15:52:41;6.20;99.90
3202;DHT22;34843;48.744;8.958;2024-03-06T15:55:08;6.20;99.90
3202;DHT22;34843;48.744;8.958;2024-03-06T15:57:36;6.20;99.90
3202;DHT22;34843;48.744;8.958;2024-03-06T16:00:06;6.20;99.90
3202;DHT22;34843;48.744;8.958;2024-03-06T16:02:32;6.20;99.90